Webcam

Webcam Flugplatz Krefeld EDLK

Kurzinfo

ICAO-Code: EDLK
Höhe ü. NN: 141 ft / 43 m
Platzfrequenz: 120.675 MHz - Krefeld Info
Landebahn: 06 - 24
Abmessungen: 640 x 30m
Belag: Gras

Tankstelle: Nein
Betriebszeit: PPR

Landegebühr:                   5,00 €
Abstellgebühr je Tag:        5,00 €
Gewerbl. Landungen:     25,00 €

Flugzeugführer oder Flugzeughalter, die Mitglied
in einem der am Egelsberg ansässigen Verein sind,
werden von den o.g. Gebühren befreit.
Alle Preise sind Bruttopreise.

METAR / TAF Düsseldorf

[source: ADDS]
METAR
EDDL 242150Z 17004KT 9999 BKN048 18/15 Q1013 NOSIG =
TAF
TAF AMD EDDL 241932Z 2419/2524 35005KT 9999 BKN040 BECMG 2420/2423 23008KT BECMG 2504/2506 24014KT TEMPO 2509/2515 25015G25KT BECMG 2516/2518 25007KT =

Anflug

Folgende Informationen sind ohne Gewähr und ersetzen auf keinen Fall die Angaben in der AIP!